sensor_id;sensor_type;location;lat;lon;timestamp;pressure;altitude;pressure_sealevel;temperature;humidity
74125;BME280;62475;52.192;5.396;2022-10-31T00:02:04;102119.72;;;12.17;100.00
74125;BME280;62475;52.192;5.396;2022-10-31T00:04:29;102119.16;;;12.25;100.00
74125;BME280;62475;52.192;5.396;2022-10-31T00:06:54;102143.16;;;12.45;100.00
74125;BME280;62475;52.192;5.396;2022-10-31T00:09:20;102128.00;;;12.37;100.00
74125;BME280;62475;52.192;5.396;2022-10-31T00:11:45;102150.59;;;12.54;100.00
74125;BME280;62475;52.192;5.396;2022-10-31T00:14:10;102150.31;;;12.51;100.00
74125;BME280;62475;52.192;5.396;2022-10-31T00:16:36;102144.84;;;12.56;100.00
74125;BME280;62475;52.192;5.396;2022-10-31T00:19:03;102151.72;;;12.58;100.00
74125;BME280;62475;52.192;5.396;2022-10-31T00:21:30;102148.66;;;12.65;100.00
74125;BME280;62475;52.192;5.396;2022-10-31T00:23:56;102136.81;;;12.54;100.00
74125;BME280;62475;52.192;5.396;2022-10-31T00:26:22;102156.41;;;12.63;100.00
74125;BME280;62475;52.192;5.396;2022-10-31T00:28:47;102151.97;;;12.57;100.00
74125;BME280;62475;52.192;5.396;2022-10-31T00:31:14;102161.38;;;12.61;100.00
74125;BME280;62475;52.192;5.396;2022-10-31T00:33:40;102159.97;;;12.58;100.00
74125;BME280;62475;52.192;5.396;2022-10-31T00:36:07;102133.78;;;12.46;100.00
74125;BME280;62475;52.192;5.396;2022-10-31T00:38:35;102159.69;;;12.65;100.00
74125;BME280;62475;52.192;5.396;2022-10-31T00:41:00;102159.69;;;12.70;100.00
74125;BME280;62475;52.192;5.396;2022-10-31T00:43:26;102152.25;;;12.66;100.00
74125;BME280;62475;52.192;5.396;2022-10-31T00:45:51;102130.78;;;12.57;100.00
74125;BME280;62475;52.192;5.396;2022-10-31T00:48:16;102159.97;;;12.69;100.00
74125;BME280;62475;52.192;5.396;2022-10-31T00:50:41;102150.63;;;12.60;100.00
74125;BME280;62475;52.192;5.396;2022-10-31T00:53:07;102159.41;;;12.62;100.00
74125;BME280;62475;52.192;5.396;2022-10-31T00:55:32;102166.59;;;12.73;100.00
74125;BME280;62475;52.192;5.396;2022-10-31T00:57:58;102166.88;;;12.71;100.00
74125;BME280;62475;52.192;5.396;2022-10-31T01:00:23;102159.97;;;12.64;100.00
74125;BME280;62475;52.192;5.396;2022-10-31T01:02:48;102156.94;;;12.60;100.00
74125;BME280;62475;52.192;5.396;2022-10-31T01:05:17;102145.09;;;12.44;100.00
74125;BME280;62475;52.192;5.396;2022-10-31T01:07:42;102162.19;;;12.56;100.00
74125;BME280;62475;52.192;5.396;2022-10-31T01:10:08;102171.84;;;12.54;100.00
74125;BME280;62475;52.192;5.396;2022-10-31T01:12:42;102167.97;;;12.60;100.00
74125;BME280;62475;52.192;5.396;2022-10-31T01:15:10;102160.25;;;12.62;100.00
74125;BME280;62475;52.192;5.396;2022-10-31T01:17:36;102151.16;;;12.51;100.00
74125;BME280;62475;52.192;5.396;2022-10-31T01:20:01;102179.56;;;12.57;100.00
74125;BME280;62475;52.192;5.396;2022-10-31T01:22:27;102154.75;;;12.47;100.00
74125;BME280;62475;52.192;5.396;2022-10-31T01:24:52;102155.53;;;12.42;100.00
74125;BME280;62475;52.192;5.396;2022-10-31T01:27:18;102139.00;;;12.32;100.00
74125;BME280;62475;52.192;5.396;2022-10-31T01:29:43;102143.72;;;12.37;100.00
74125;BME280;62475;52.192;5.396;2022-10-31T01:32:08;102137.38;;;12.31;100.00
74125;BME280;62475;52.192;5.396;2022-10-31T01:34:34;102141.50;;;12.44;100.00
74125;BME280;62475;52.192;5.396;2022-10-31T01:36:59;102147.28;;;12.37;100.00
74125;BME280;62475;52.192;5.396;2022-10-31T01:39:24;102131.59;;;12.28;100.00
74125;BME280;62475;52.192;5.396;2022-10-31T01:41:52;102143.69;;;12.32;100.00
74125;BME280;62475;52.192;5.396;2022-10-31T01:46:49;102136.53;;;12.16;100.00
74125;BME280;62475;52.192;5.396;2022-10-31T01:49:29;102130.16;;;12.10;100.00
74125;BME280;62475;52.192;5.396;2022-10-31T01:51:58;102140.69;;;12.33;100.00
74125;BME280;62475;52.192;5.396;2022-10-31T01:54:29;102141.75;;;12.17;100.00
74125;BME280;62475;52.192;5.396;2022-10-31T01:56:56;102110.88;;;11.95;100.00
74125;BME280;62475;52.192;5.396;2022-10-31T01:59:23;102130.16;;;12.05;100.00
74125;BME280;62475;52.192;5.396;2022-10-31T02:01:52;102115.28;;;12.06;100.00
74125;BME280;62475;52.192;5.396;2022-10-31T02:04:19;102137.56;;;11.90;100.00
74125;BME280;62475;52.192;5.396;2022-10-31T02:06:49;102116.53;;;11.64;100.00
74125;BME280;62475;52.192;5.396;2022-10-31T02:09:16;102133.38;;;11.77;100.00
74125;BME280;62475;52.192;5.396;2022-10-31T02:11:50;102119.06;;;11.80;100.00
74125;BME280;62475;52.192;5.396;2022-10-31T02:14:16;102119.03;;;11.65;100.00
74125;BME280;62475;52.192;5.396;2022-10-31T02:16:41;102130.06;;;11.70;100.00
74125;BME280;62475;52.192;5.396;2022-10-31T02:19:08;102132.81;;;11.70;100.00
74125;BME280;62475;52.192;5.396;2022-10-31T02:21:49;102132.72;;;11.55;100.00
74125;BME280;62475;52.192;5.396;2022-10-31T02:27:06;102134.00;;;11.32;100.00
74125;BME280;62475;52.192;5.396;2022-10-31T02:29:53;102118.47;;;11.11;100.00
74125;BME280;62475;52.192;5.396;2022-10-31T02:35:45;102132.25;;;11.16;100.00
74125;BME280;62475;52.192;5.396;2022-10-31T02:41:10;102134.72;;;11.13;100.00
74125;BME280;62475;52.192;5.396;2022-10-31T02:49:05;102151.75;;;10.73;100.00
74125;BME280;62475;52.192;5.396;2022-10-31T02:51:32;102153.91;;;10.66;100.00
74125;BME280;62475;52.192;5.396;2022-10-31T02:53:58;102136.50;;;10.56;100.00
74125;BME280;62475;52.192;5.396;2022-10-31T02:56:23;102144.75;;;10.56;100.00
74125;BME280;62475;52.192;5.396;2022-10-31T02:58:52;102136.25;;;10.57;100.00
74125;BME280;62475;52.192;5.396;2022-10-31T03:04:26;102142.56;;;10.58;100.00
74125;BME280;62475;52.192;5.396;2022-10-31T03:07:05;102128.63;;;10.38;100.00
74125;BME280;62475;52.192;5.396;2022-10-31T03:12:11;102123.94;;;10.33;100.00
74125;BME280;62475;52.192;5.396;2022-10-31T03:14:43;102144.09;;;10.44;100.00
74125;BME280;62475;52.192;5.396;2022-10-31T03:17:24;102138.34;;;10.45;100.00
74125;BME280;62475;52.192;5.396;2022-10-31T03:19:55;102144.34;;;10.42;100.00
74125;BME280;62475;52.192;5.396;2022-10-31T03:22:26;102141.31;;;10.39;100.00
74125;BME280;62475;52.192;5.396;2022-10-31T03:24:53;102140.19;;;10.40;100.00
74125;BME280;62475;52.192;5.396;2022-10-31T03:27:25;102152.03;;;10.40;100.00
74125;BME280;62475;52.192;5.396;2022-10-31T03:29:55;102129.41;;;10.28;100.00
74125;BME280;62475;52.192;5.396;2022-10-31T03:32:31;102145.13;;;10.38;100.00
74125;BME280;62475;52.192;5.396;2022-10-31T03:34:59;102145.06;;;10.32;100.00
74125;BME280;62475;52.192;5.396;2022-10-31T03:37:27;102144.50;;;10.30;100.00
74125;BME280;62475;52.192;5.396;2022-10-31T03:39:55;102143.16;;;10.33;100.00
74125;BME280;62475;52.192;5.396;2022-10-31T03:42:25;102147.56;;;10.34;100.00
74125;BME280;62475;52.192;5.396;2022-10-31T03:45:03;102148.09;;;10.31;100.00
74125;BME280;62475;52.192;5.396;2022-10-31T03:47:31;102137.38;;;10.29;100.00
74125;BME280;62475;52.192;5.396;2022-10-31T03:49:57;102139.28;;;10.29;100.00
74125;BME280;62475;52.192;5.396;2022-10-31T03:52:37;102139.44;;;10.17;100.00
74125;BME280;62475;52.192;5.396;2022-10-31T03:55:12;102136.78;;;10.27;100.00
74125;BME280;62475;52.192;5.396;2022-10-31T03:58:02;102146.63;;;10.23;100.00
74125;BME280;62475;52.192;5.396;2022-10-31T04:00:30;102143.88;;;10.23;100.00
74125;BME280;62475;52.192;5.396;2022-10-31T04:03:00;102135.34;;;10.20;100.00
74125;BME280;62475;52.192;5.396;2022-10-31T04:05:29;102140.66;;;10.26;100.00
74125;BME280;62475;52.192;5.396;2022-10-31T04:07:56;102153.28;;;10.27;100.00
74125;BME280;62475;52.192;5.396;2022-10-31T04:10:23;102134.22;;;10.16;100.00
74125;BME280;62475;52.192;5.396;2022-10-31T04:12:57;102146.28;;;10.15;100.00
74125;BME280;62475;52.192;5.396;2022-10-31T04:15:26;102148.56;;;10.23;100.00
74125;BME280;62475;52.192;5.396;2022-10-31T04:17:54;102126.66;;;10.06;100.00
74125;BME280;62475;52.192;5.396;2022-10-31T04:20:31;102162.31;;;10.23;100.00
74125;BME280;62475;52.192;5.396;2022-10-31T04:22:56;102150.97;;;10.14;100.00
74125;BME280;62475;52.192;5.396;2022-10-31T04:25:22;102149.69;;;10.00;100.00
74125;BME280;62475;52.192;5.396;2022-10-31T04:27:48;102151.91;;;10.03;100.00
74125;BME280;62475;52.192;5.396;2022-10-31T04:30:13;102128.69;;;9.89;100.00
74125;BME280;62475;52.192;5.396;2022-10-31T04:32:39;102151.28;;;9.96;100.00
74125;BME280;62475;52.192;5.396;2022-10-31T04:35:04;102135.81;;;9.90;100.00
74125;BME280;62475;52.192;5.396;2022-10-31T04:37:30;102127.53;;;9.85;100.00
74125;BME280;62475;52.192;5.396;2022-10-31T04:39:55;102147.44;;;9.97;100.00
74125;BME280;62475;52.192;5.396;2022-10-31T04:42:20;102142.78;;;9.98;100.00
74125;BME280;62475;52.192;5.396;2022-10-31T04:44:46;102148.25;;;9.98;100.00
74125;BME280;62475;52.192;5.396;2022-10-31T04:47:11;102147.94;;;9.94;100.00
74125;BME280;62475;52.192;5.396;2022-10-31T04:49:36;102143.50;;;9.88;100.00
74125;BME280;62475;52.192;5.396;2022-10-31T04:52:02;102139.03;;;9.82;100.00
74125;BME280;62475;52.192;5.396;2022-10-31T04:54:27;102135.91;;;9.74;100.00
74125;BME280;62475;52.192;5.396;2022-10-31T04:56:52;101926.88;;;8.49;100.00
74125;BME280;62475;52.192;5.396;2022-10-31T04:59:18;102153.06;;;9.86;100.00
74125;BME280;62475;52.192;5.396;2022-10-31T05:01:43;102138.41;;;9.75;100.00
74125;BME280;62475;52.192;5.396;2022-10-31T05:04:08;102138.97;;;9.77;100.00
74125;BME280;62475;52.192;5.396;2022-10-31T05:06:34;102133.19;;;9.74;100.00
74125;BME280;62475;52.192;5.396;2022-10-31T05:08:59;102114.75;;;9.69;100.00
74125;BME280;62475;52.192;5.396;2022-10-31T05:11:24;102138.63;;;9.69;100.00
74125;BME280;62475;52.192;5.396;2022-10-31T05:13:49;102124.53;;;9.60;100.00
74125;BME280;62475;52.192;5.396;2022-10-31T05:16:15;102138.81;;;9.62;100.00
74125;BME280;62475;52.192;5.396;2022-10-31T05:18:40;102138.81;;;9.62;100.00
74125;BME280;62475;52.192;5.396;2022-10-31T05:21:05;102129.16;;;9.60;100.00
74125;BME280;62475;52.192;5.396;2022-10-31T05:23:31;102139.06;;;9.61;100.00
74125;BME280;62475;52.192;5.396;2022-10-31T05:25:56;102136.06;;;9.62;100.00
74125;BME280;62475;52.192;5.396;2022-10-31T05:28:21;102137.19;;;9.66;100.00
74125;BME280;62475;52.192;5.396;2022-10-31T05:30:49;102131.97;;;9.65;100.00
74125;BME280;62475;52.192;5.396;2022-10-31T05:33:14;102128.66;;;9.63;100.00
74125;BME280;62475;52.192;5.396;2022-10-31T05:35:39;102126.44;;;9.60;100.00
74125;BME280;62475;52.192;5.396;2022-10-31T05:38:04;102121.84;;;9.65;100.00
74125;BME280;62475;52.192;5.396;2022-10-31T05:40:30;102128.66;;;9.63;100.00
74125;BME280;62475;52.192;5.396;2022-10-31T05:42:56;102108.59;;;9.57;100.00
74125;BME280;62475;52.192;5.396;2022-10-31T05:45:23;102108.81;;;9.56;100.00
74125;BME280;62475;52.192;5.396;2022-10-31T05:47:56;102116.03;;;9.62;100.00
74125;BME280;62475;52.192;5.396;2022-10-31T05:50:23;102118.19;;;9.60;100.00
74125;BME280;62475;52.192;5.396;2022-10-31T05:53:01;102122.28;;;9.57;100.00
74125;BME280;62475;52.192;5.396;2022-10-31T05:55:27;102114.88;;;9.58;100.00
74125;BME280;62475;52.192;5.396;2022-10-31T05:57:54;102111.38;;;9.62;100.00
74125;BME280;62475;52.192;5.396;2022-10-31T06:00:20;102098.69;;;9.56;100.00
74125;BME280;62475;52.192;5.396;2022-10-31T06:02:46;102105.56;;;9.59;100.00
74125;BME280;62475;52.192;5.396;2022-10-31T06:05:12;102109.72;;;9.61;100.00
74125;BME280;62475;52.192;5.396;2022-10-31T06:07:38;102104.22;;;9.61;100.00
74125;BME280;62475;52.192;5.396;2022-10-31T06:10:05;102089.38;;;9.57;100.00
74125;BME280;62475;52.192;5.396;2022-10-31T06:12:31;102094.28;;;9.55;100.00
74125;BME280;62475;52.192;5.396;2022-10-31T06:14:56;102102.50;;;9.55;100.00
74125;BME280;62475;52.192;5.396;2022-10-31T06:17:22;102094.97;;;9.46;100.00
74125;BME280;62475;52.192;5.396;2022-10-31T06:19:47;102110.91;;;9.49;100.00
74125;BME280;62475;52.192;5.396;2022-10-31T06:22:12;102112.47;;;9.40;100.00
74125;BME280;62475;52.192;5.396;2022-10-31T06:24:38;102108.31;;;9.37;100.00
74125;BME280;62475;52.192;5.396;2022-10-31T06:27:04;102115.97;;;9.35;100.00
74125;BME280;62475;52.192;5.396;2022-10-31T06:29:32;102110.41;;;9.30;100.00
74125;BME280;62475;52.192;5.396;2022-10-31T06:31:57;102113.69;;;9.27;100.00
74125;BME280;62475;52.192;5.396;2022-10-31T06:34:23;102121.06;;;9.27;100.00
74125;BME280;62475;52.192;5.396;2022-10-31T06:36:48;102125.72;;;9.26;100.00
74125;BME280;62475;52.192;5.396;2022-10-31T06:39:16;102122.97;;;9.26;100.00
74125;BME280;62475;52.192;5.396;2022-10-31T06:41:41;102106.38;;;9.16;100.00
74125;BME280;62475;52.192;5.396;2022-10-31T06:44:07;102095.09;;;9.12;100.00
74125;BME280;62475;52.192;5.396;2022-10-31T06:46:33;102121.56;;;9.24;100.00
74125;BME280;62475;52.192;5.396;2022-10-31T06:48:58;102128.38;;;9.21;100.00
74125;BME280;62475;52.192;5.396;2022-10-31T06:51:23;102131.38;;;9.19;100.00
74125;BME280;62475;52.192;5.396;2022-10-31T06:53:49;102118.44;;;9.15;100.00
74125;BME280;62475;52.192;5.396;2022-10-31T06:56:14;102121.38;;;9.08;100.00
74125;BME280;62475;52.192;5.396;2022-10-31T06:58:39;102134.31;;;9.13;100.00
74125;BME280;62475;52.192;5.396;2022-10-31T07:01:05;102136.22;;;9.12;100.00
74125;BME280;62475;52.192;5.396;2022-10-31T07:03:31;102120.66;;;8.96;100.00
74125;BME280;62475;52.192;5.396;2022-10-31T07:05:56;102139.66;;;9.03;100.00
74125;BME280;62475;52.192;5.396;2022-10-31T07:08:22;102133.34;;;9.02;100.00
74125;BME280;62475;52.192;5.396;2022-10-31T07:10:52;102136.06;;;9.02;100.00
74125;BME280;62475;52.192;5.396;2022-10-31T07:13:17;102133.59;;;9.01;100.00
74125;BME280;62475;52.192;5.396;2022-10-31T07:15:43;102123.94;;;8.98;100.00
74125;BME280;62475;52.192;5.396;2022-10-31T07:18:10;102124.28;;;9.02;100.00
74125;BME280;62475;52.192;5.396;2022-10-31T07:20:36;102044.50;;;8.60;100.00
74125;BME280;62475;52.192;5.396;2022-10-31T07:23:01;102135.41;;;9.12;100.00
74125;BME280;62475;52.192;5.396;2022-10-31T07:25:27;102126.47;;;9.22;100.00
74125;BME280;62475;52.192;5.396;2022-10-31T07:27:53;102118.50;;;9.20;100.00
74125;BME280;62475;52.192;5.396;2022-10-31T07:30:19;102128.97;;;9.23;100.00
74125;BME280;62475;52.192;5.396;2022-10-31T07:32:46;102141.34;;;9.26;100.00
74125;BME280;62475;52.192;5.396;2022-10-31T07:35:20;102142.16;;;9.26;100.00
74125;BME280;62475;52.192;5.396;2022-10-31T07:37:45;102131.72;;;9.23;100.00
74125;BME280;62475;52.192;5.396;2022-10-31T07:40:11;102143.91;;;9.32;100.00
74125;BME280;62475;52.192;5.396;2022-10-31T07:42:38;102097.03;;;9.12;100.00
74125;BME280;62475;52.192;5.396;2022-10-31T07:45:04;102149.56;;;9.47;100.00
74125;BME280;62475;52.192;5.396;2022-10-31T07:47:49;102131.41;;;9.41;100.00
74125;BME280;62475;52.192;5.396;2022-10-31T07:50:18;102147.47;;;9.54;100.00
74125;BME280;62475;52.192;5.396;2022-10-31T07:52:44;102130.38;;;9.47;100.00
74125;BME280;62475;52.192;5.396;2022-10-31T07:55:10;102156.03;;;9.58;100.00
74125;BME280;62475;52.192;5.396;2022-10-31T07:57:35;102152.59;;;9.67;100.00
74125;BME280;62475;52.192;5.396;2022-10-31T08:00:08;102145.16;;;9.68;100.00
74125;BME280;62475;52.192;5.396;2022-10-31T08:02:34;102149.91;;;9.72;100.00
74125;BME280;62475;52.192;5.396;2022-10-31T08:05:00;102125.16;;;9.67;100.00
74125;BME280;62475;52.192;5.396;2022-10-31T08:07:27;102152.88;;;9.92;100.00
74125;BME280;62475;52.192;5.396;2022-10-31T08:09:55;102136.28;;;9.82;100.00
74125;BME280;62475;52.192;5.396;2022-10-31T08:12:20;102164.94;;;9.91;100.00
74125;BME280;62475;52.192;5.396;2022-10-31T08:14:46;102156.81;;;10.01;100.00
74125;BME280;62475;52.192;5.396;2022-10-31T08:17:11;102150.69;;;10.16;100.00
74125;BME280;62475;52.192;5.396;2022-10-31T08:19:36;102153.84;;;10.29;100.00
74125;BME280;62475;52.192;5.396;2022-10-31T08:22:02;102144.56;;;10.36;100.00
74125;BME280;62475;52.192;5.396;2022-10-31T08:24:27;102146.75;;;10.34;100.00
74125;BME280;62475;52.192;5.396;2022-10-31T08:26:52;102148.06;;;10.58;100.00
74125;BME280;62475;52.192;5.396;2022-10-31T08:29:18;102138.06;;;10.47;100.00
74125;BME280;62475;52.192;5.396;2022-10-31T08:31:43;102145.13;;;10.69;100.00
74125;BME280;62475;52.192;5.396;2022-10-31T08:34:09;102129.22;;;10.71;100.00
74125;BME280;62475;52.192;5.396;2022-10-31T08:36:35;102137.59;;;10.91;100.00
74125;BME280;62475;52.192;5.396;2022-10-31T08:39:01;102137.38;;;10.98;100.00
74125;BME280;62475;52.192;5.396;2022-10-31T08:41:27;102109.59;;;10.94;100.00
74125;BME280;62475;52.192;5.396;2022-10-31T08:43:52;102132.84;;;11.23;100.00
74125;BME280;62475;52.192;5.396;2022-10-31T08:46:17;102136.97;;;11.26;100.00
74125;BME280;62475;52.192;5.396;2022-10-31T08:48:43;102141.38;;;11.22;100.00
74125;BME280;62475;52.192;5.396;2022-10-31T08:51:09;102142.44;;;11.21;100.00
74125;BME280;62475;52.192;5.396;2022-10-31T08:53:35;102144.41;;;11.25;100.00
74125;BME280;62475;52.192;5.396;2022-10-31T08:56:00;102136.47;;;11.29;100.00
74125;BME280;62475;52.192;5.396;2022-10-31T08:58:25;102140.88;;;11.35;100.00
74125;BME280;62475;52.192;5.396;2022-10-31T09:00:53;102123.81;;;11.38;100.00
74125;BME280;62475;52.192;5.396;2022-10-31T09:03:26;102117.00;;;11.45;100.00
74125;BME280;62475;52.192;5.396;2022-10-31T09:05:56;102117.88;;;11.56;100.00
74125;BME280;62475;52.192;5.396;2022-10-31T09:08:22;102110.47;;;11.62;100.00
74125;BME280;62475;52.192;5.396;2022-10-31T09:10:48;102109.75;;;11.81;100.00
74125;BME280;62475;52.192;5.396;2022-10-31T09:13:16;102108.94;;;11.96;100.00
74125;BME280;62475;52.192;5.396;2022-10-31T09:15:43;102102.34;;;12.07;100.00
74125;BME280;62475;52.192;5.396;2022-10-31T09:18:09;102104.03;;;12.23;100.00
74125;BME280;62475;52.192;5.396;2022-10-31T09:20:36;102092.72;;;12.19;100.00
74125;BME280;62475;52.192;5.396;2022-10-31T09:23:22;102094.09;;;12.32;100.00
74125;BME280;62475;52.192;5.396;2022-10-31T09:25:49;102081.72;;;12.24;100.00
74125;BME280;62475;52.192;5.396;2022-10-31T09:28:17;102080.06;;;12.48;100.00
74125;BME280;62475;52.192;5.396;2022-10-31T09:30:46;102086.63;;;12.78;100.00
74125;BME280;62475;52.192;5.396;2022-10-31T09:33:12;102079.44;;;12.87;100.00
74125;BME280;62475;52.192;5.396;2022-10-31T09:35:38;102073.91;;;13.07;100.00
74125;BME280;62475;52.192;5.396;2022-10-31T09:38:23;102076.38;;;13.18;100.00
74125;BME280;62475;52.192;5.396;2022-10-31T09:40:55;102068.81;;;13.39;100.00
74125;BME280;62475;52.192;5.396;2022-10-31T09:52:32;102070.34;;;13.65;100.00
74125;BME280;62475;52.192;5.396;2022-10-31T09:55:20;102071.94;;;13.81;100.00
74125;BME280;62475;52.192;5.396;2022-10-31T09:57:49;102071.34;;;13.84;100.00
74125;BME280;62475;52.192;5.396;2022-10-31T10:00:19;102067.72;;;13.89;100.00
74125;BME280;62475;52.192;5.396;2022-10-31T10:02:56;102069.38;;;13.90;100.00
74125;BME280;62475;52.192;5.396;2022-10-31T10:05:46;102069.81;;;14.07;100.00
74125;BME280;62475;52.192;5.396;2022-10-31T10:08:18;102068.69;;;14.08;100.00
74125;BME280;62475;52.192;5.396;2022-10-31T10:10:50;102060.06;;;14.19;100.00
74125;BME280;62475;52.192;5.396;2022-10-31T10:16:31;102064.63;;;14.00;100.00
74125;BME280;62475;52.192;5.396;2022-10-31T10:25:15;102030.28;;;14.06;100.00
74125;BME280;62475;52.192;5.396;2022-10-31T10:30:50;102039.75;;;14.34;100.00
74125;BME280;62475;52.192;5.396;2022-10-31T10:33:28;102026.53;;;14.31;100.00
74125;BME280;62475;52.192;5.396;2022-10-31T10:35:58;102006.38;;;14.25;100.00
74125;BME280;62475;52.192;5.396;2022-10-31T10:38:36;102023.72;;;14.36;100.00
74125;BME280;62475;52.192;5.396;2022-10-31T10:41:08;102026.72;;;14.39;100.00
74125;BME280;62475;52.192;5.396;2022-10-31T10:43:37;102026.91;;;14.48;100.00
74125;BME280;62475;52.192;5.396;2022-10-31T10:51:37;102012.66;;;14.64;100.00
74125;BME280;62475;52.192;5.396;2022-10-31T10:54:37;102013.31;;;14.80;100.00
74125;BME280;62475;52.192;5.396;2022-10-31T10:57:17;101996.13;;;14.83;100.00
74125;BME280;62475;52.192;5.396;2022-10-31T10:59:45;101976.41;;;14.90;100.00
74125;BME280;62475;52.192;5.396;2022-10-31T11:02:19;101972.88;;;15.08;100.00
74125;BME280;62475;52.192;5.396;2022-10-31T11:04:48;101963.03;;;15.20;100.00
74125;BME280;62475;52.192;5.396;2022-10-31T11:07:14;101952.97;;;15.24;99.34
74125;BME280;62475;52.192;5.396;2022-10-31T11:09:40;101926.81;;;15.17;98.96
74125;BME280;62475;52.192;5.396;2022-10-31T11:12:08;101942.06;;;15.33;97.29
74125;BME280;62475;52.192;5.396;2022-10-31T11:14:42;101925.63;;;15.41;96.99
74125;BME280;62475;52.192;5.396;2022-10-31T11:17:38;101919.88;;;15.56;95.99
74125;BME280;62475;52.192;5.396;2022-10-31T11:22:40;101917.84;;;15.62;95.59
74125;BME280;62475;52.192;5.396;2022-10-31T11:27:44;101900.22;;;15.71;95.18
74125;BME280;62475;52.192;5.396;2022-10-31T11:30:12;101898.94;;;15.82;93.63
74125;BME280;62475;52.192;5.396;2022-10-31T11:32:43;101934.28;;;16.04;92.49
74125;BME280;62475;52.192;5.396;2022-10-31T11:35:15;101926.72;;;16.10;93.86
74125;BME280;62475;52.192;5.396;2022-10-31T11:37:44;101914.97;;;15.99;93.99
74125;BME280;62475;52.192;5.396;2022-10-31T11:40:36;101915.63;;;16.10;93.32
74125;BME280;62475;52.192;5.396;2022-10-31T11:43:01;101905.06;;;16.25;92.90
74125;BME280;62475;52.192;5.396;2022-10-31T11:45:30;101903.03;;;16.17;92.29
74125;BME280;62475;52.192;5.396;2022-10-31T11:47:56;101907.13;;;16.20;91.77
74125;BME280;62475;52.192;5.396;2022-10-31T11:50:26;101910.59;;;16.12;92.16
74125;BME280;62475;52.192;5.396;2022-10-31T11:52:53;101896.09;;;16.01;92.57
74125;BME280;62475;52.192;5.396;2022-10-31T11:55:35;101900.50;;;16.02;92.31
74125;BME280;62475;52.192;5.396;2022-10-31T11:58:02;101888.63;;;16.02;93.06
74125;BME280;62475;52.192;5.396;2022-10-31T12:00:33;101872.34;;;15.81;92.36
74125;BME280;62475;52.192;5.396;2022-10-31T12:06:38;101848.72;;;15.70;93.08
74125;BME280;62475;52.192;5.396;2022-10-31T12:12:10;101826.44;;;15.62;93.59
74125;BME280;62475;52.192;5.396;2022-10-31T12:17:16;101818.13;;;15.62;93.43
74125;BME280;62475;52.192;5.396;2022-10-31T12:22:24;101820.38;;;15.60;93.91
74125;BME280;62475;52.192;5.396;2022-10-31T12:28:16;101818.50;;;15.55;94.92
74125;BME280;62475;52.192;5.396;2022-10-31T12:31:32;101814.41;;;15.53;94.96
74125;BME280;62475;52.192;5.396;2022-10-31T12:37:08;101795.16;;;15.61;93.96
74125;BME280;62475;52.192;5.396;2022-10-31T12:39:58;101788.91;;;15.69;93.91
74125;BME280;62475;52.192;5.396;2022-10-31T12:47:54;101793.44;;;15.79;94.08
74125;BME280;62475;52.192;5.396;2022-10-31T12:50:35;101772.00;;;15.84;93.37
74125;BME280;62475;52.192;5.396;2022-10-31T12:53:32;101758.66;;;15.86;93.38
74125;BME280;62475;52.192;5.396;2022-10-31T12:58:38;101742.31;;;15.85;93.97
74125;BME280;62475;52.192;5.396;2022-10-31T13:01:16;101740.19;;;15.96;93.60
74125;BME280;62475;52.192;5.396;2022-10-31T13:03:58;101742.75;;;15.92;93.65
74125;BME280;62475;52.192;5.396;2022-10-31T13:06:50;101734.75;;;15.90;93.33
74125;BME280;62475;52.192;5.396;2022-10-31T13:09:27;101719.03;;;16.00;94.27
74125;BME280;62475;52.192;5.396;2022-10-31T13:11:59;101715.13;;;16.01;94.02
74125;BME280;62475;52.192;5.396;2022-10-31T13:14:30;101712.03;;;16.02;94.05
74125;BME280;62475;52.192;5.396;2022-10-31T13:16:59;101704.66;;;15.98;94.44
74125;BME280;62475;52.192;5.396;2022-10-31T13:19:33;101720.47;;;15.97;95.02
74125;BME280;62475;52.192;5.396;2022-10-31T13:22:13;101699.34;;;16.01;94.93
74125;BME280;62475;52.192;5.396;2022-10-31T13:27:23;101664.84;;;15.93;95.78
74125;BME280;62475;52.192;5.396;2022-10-31T13:30:00;101670.78;;;16.01;95.24
74125;BME280;62475;52.192;5.396;2022-10-31T13:32:41;101663.94;;;15.98;96.14
74125;BME280;62475;52.192;5.396;2022-10-31T13:35:19;101664.44;;;16.00;96.31
74125;BME280;62475;52.192;5.396;2022-10-31T13:38:15;101662.16;;;16.02;95.90
74125;BME280;62475;52.192;5.396;2022-10-31T13:40:45;101659.38;;;16.02;96.54
74125;BME280;62475;52.192;5.396;2022-10-31T13:45:54;101641.00;;;16.06;96.18
74125;BME280;62475;52.192;5.396;2022-10-31T13:48:35;101644.94;;;16.05;96.72
74125;BME280;62475;52.192;5.396;2022-10-31T13:51:06;101645.13;;;16.09;96.24
74125;BME280;62475;52.192;5.396;2022-10-31T13:56:28;101631.53;;;16.21;96.83
74125;BME280;62475;52.192;5.396;2022-10-31T13:59:00;101631.75;;;16.24;96.73
74125;BME280;62475;52.192;5.396;2022-10-31T14:01:26;101627.81;;;16.25;96.94
74125;BME280;62475;52.192;5.396;2022-10-31T14:04:03;101615.09;;;16.24;96.77
74125;BME280;62475;52.192;5.396;2022-10-31T14:06:58;101612.72;;;16.31;96.91
74125;BME280;62475;52.192;5.396;2022-10-31T14:12:01;101599.66;;;16.32;97.82
74125;BME280;62475;52.192;5.396;2022-10-31T14:14:33;101587.06;;;16.26;97.66
74125;BME280;62475;52.192;5.396;2022-10-31T14:17:00;101587.06;;;16.26;97.43
74125;BME280;62475;52.192;5.396;2022-10-31T14:19:26;101587.31;;;16.38;96.03
74125;BME280;62475;52.192;5.396;2022-10-31T14:21:51;101584.75;;;16.41;95.72
74125;BME280;62475;52.192;5.396;2022-10-31T14:26:58;101574.16;;;16.43;96.09
74125;BME280;62475;52.192;5.396;2022-10-31T14:34:36;101563.28;;;16.47;95.35
74125;BME280;62475;52.192;5.396;2022-10-31T14:37:38;101558.25;;;16.49;95.27